Time;durP1;ratioP1;P1;durP2;ratioP2;P2;SDS_P1;SDS_P2;PMS_P1;PMS_P2;Temp;Humidity;BMP_temperature;BMP_pressure;BME280_temperature;BME280_humidity;BME280_pressure;Samples;Min_cycle;Max_cycle;Signal;HPM_P1;HPM_P2
2024/04/15 00:00:18;;;;;;;6.60;1.17;;;;;;;-146.27;61.85;46663.16;5471914;26;20005;-69
2024/04/15 00:02:43;;;;;;;6.68;1.50;;;;;;;-146.27;61.73;46667.16;5468823;26;20434;-69
2024/04/15 00:05:09;;;;;;;9.48;2.28;;;;;;;-146.27;62.31;46675.13;5463165;26;20469;-69
2024/04/15 00:07:34;;;;;;;7.05;1.70;;;;;;;-146.27;62.55;46627.34;5475267;26;19990;-70
2024/04/15 00:09:59;;;;;;;9.38;1.42;;;;;;;-146.27;63.67;46603.44;5465207;26;20071;-69
2024/04/15 00:12:25;;;;;;;8.80;1.70;;;;;;;-146.27;64.65;46581.56;5474111;26;19998;-69
2024/04/15 00:14:50;;;;;;;7.25;1.60;;;;;;;-146.27;64.54;46553.69;5475040;26;20466;-71
2024/04/15 00:17:16;;;;;;;11.73;1.60;;;;;;;-146.27;64.38;46495.94;5454658;26;20097;-70
2024/04/15 00:19:41;;;;;;;7.32;2.05;;;;;;;-146.27;64.19;46456.13;5475216;26;20003;-71
2024/04/15 00:22:08;;;;;;;6.30;1.60;;;;;;;-146.27;63.96;46456.13;5458054;26;20030;-70
2024/04/15 00:24:33;;;;;;;6.70;1.50;;;;;;;-146.27;64.48;46470.06;5475457;26;20003;-69
2024/04/15 00:26:59;;;;;;;12.80;2.13;;;;;;;-146.27;64.54;46424.28;5460696;26;20003;-71
2024/04/15 00:29:24;;;;;;;15.75;2.05;;;;;;;-146.27;65.96;46468.06;5473851;26;19998;-71
2024/04/15 00:31:50;;;;;;;8.93;1.65;;;;;;;-146.27;65.45;46434.22;5472966;26;20026;-70
2024/04/15 00:34:15;;;;;;;8.05;1.48;;;;;;;-146.27;65.45;46410.34;5450934;26;20083;-70
2024/04/15 00:36:42;;;;;;;11.73;2.17;;;;;;;-146.27;66.09;46412.34;5462973;26;20347;-69
2024/04/15 00:39:08;;;;;;;4.68;1.30;;;;;;;-146.27;65.63;46376.50;5477885;26;20331;-71
2024/04/15 00:41:34;;;;;;;8.70;1.85;;;;;;;-146.27;65.94;46344.66;5459302;26;20034;-69
2024/04/15 00:43:59;;;;;;;12.85;1.90;;;;;;;-146.27;65.87;46350.63;5476178;26;19990;-70
2024/04/15 00:46:24;;;;;;;4.82;1.65;;;;;;;-146.27;65.69;46334.69;5468344;26;20002;-69
2024/04/15 00:48:50;;;;;;;12.70;2.53;;;;;;;-146.27;65.88;46340.66;5482524;26;20018;-71
2024/04/15 00:51:17;;;;;;;10.77;1.98;;;;;;;-146.27;65.92;46304.84;5466170;26;20089;-70
2024/04/15 00:53:45;;;;;;;9.25;3.15;;;;;;;-146.27;66.26;46326.72;5487191;26;20340;-70
2024/04/15 00:56:12;;;;;;;15.38;2.28;;;;;;;-146.27;66.44;46308.81;5471993;26;20007;-70
2024/04/15 00:58:37;;;;;;;12.30;2.50;;;;;;;-146.27;67.12;46253.06;5451160;26;20003;-71
2024/04/15 01:01:04;;;;;;;9.20;2.75;;;;;;;-146.27;66.83;46223.22;5468632;26;20071;-70
2024/04/15 01:03:29;;;;;;;10.23;2.60;;;;;;;-146.27;67.70;46261.03;5450122;26;20428;-70
2024/04/15 01:05:55;;;;;;;7.28;2.33;;;;;;;-146.27;67.97;46201.31;5460224;26;20099;-72
2024/04/15 01:08:21;;;;;;;10.57;2.58;;;;;;;-146.27;67.38;46209.28;5450768;26;19994;-70
2024/04/15 01:10:46;;;;;;;10.55;2.40;;;;;;;-146.27;68.22;46177.44;5449104;26;20478;-70
2024/04/15 01:13:13;;;;;;;13.38;2.25;;;;;;;-146.27;68.14;46133.63;5451339;26;19995;-70
2024/04/15 01:15:38;;;;;;;7.55;1.90;;;;;;;-146.27;68.49;46099.81;5448286;26;20626;-69
2024/04/15 01:18:04;;;;;;;12.52;2.30;;;;;;;-146.27;68.95;46079.91;5453533;26;20003;-69
2024/04/15 01:20:30;;;;;;;7.38;2.10;;;;;;;-146.27;69.38;46022.16;5448440;26;20005;-70
2024/04/15 01:22:59;;;;;;;12.60;2.63;;;;;;;-146.27;69.93;45966.44;5451012;26;20777;-69
2024/04/15 01:25:25;;;;;;;15.93;2.55;;;;;;;-146.27;70.15;45950.50;5450054;26;20009;-70
2024/04/15 01:27:51;;;;;;;17.88;2.63;;;;;;;-146.27;70.48;45918.66;5446144;26;20014;-69
2024/04/15 01:30:16;;;;;;;11.43;1.98;;;;;;;-146.27;70.58;45860.94;5453712;26;20015;-69
2024/04/15 01:32:41;;;;;;;10.15;2.58;;;;;;;-146.27;70.53;45854.97;5471831;26;19999;-71
2024/04/15 01:35:07;;;;;;;7.25;1.55;;;;;;;-146.27;70.93;45821.13;5465303;26;20008;-68
2024/04/15 01:37:32;;;;;;;17.33;2.42;;;;;;;-146.27;71.51;45854.97;5470619;26;19994;-69
2024/04/15 01:39:58;;;;;;;16.67;2.17;;;;;;;-146.27;71.99;45765.41;5460480;26;20022;-70
2024/04/15 01:42:23;;;;;;;7.57;2.03;;;;;;;-146.27;72.07;45737.53;5459093;26;19994;-70
2024/04/15 01:44:48;;;;;;;13.75;2.80;;;;;;;-146.27;72.28;45705.69;5472269;26;20336;-69
2024/04/15 01:47:14;;;;;;;22.63;2.88;;;;;;;-146.27;73.09;45679.81;5462156;26;19994;-70
2024/04/15 01:49:39;;;;;;;13.18;2.05;;;;;;;-146.27;74.17;45576.31;5461377;26;19999;-69
2024/04/15 01:52:05;;;;;;;13.32;2.05;;;;;;;-146.27;73.67;45442.97;5449801;26;20005;-70
2024/04/15 01:54:30;;;;;;;16.42;2.72;;;;;;;-146.27;74.33;45401.16;5450246;26;20453;-70
2024/04/15 01:56:55;;;;;;;15.55;2.15;;;;;;;-146.27;74.76;45241.94;5472752;26;19994;-69
2024/04/15 01:59:21;;;;;;;16.75;2.00;;;;;;;-146.27;73.68;45249.91;5453544;26;20021;-70
2024/04/15 02:01:46;;;;;;;7.68;2.17;;;;;;;-146.27;73.59;45226.03;5463031;26;20006;-70
2024/04/15 02:04:11;;;;;;;9.57;2.25;;;;;;;-146.27;73.64;45234.00;5466368;26;20093;-69
2024/04/15 02:06:37;;;;;;;14.60;2.20;;;;;;;-146.27;73.75;45237.97;5474629;26;20338;-69
2024/04/15 02:09:02;;;;;;;14.07;2.67;;;;;;;-146.27;74.04;45249.91;5463916;26;20014;-70
2024/04/15 02:11:27;;;;;;;15.27;2.65;;;;;;;-146.27;74.48;45192.19;5497051;26;20396;-69
2024/04/15 02:13:53;;;;;;;8.65;2.30;;;;;;;-146.27;74.65;45178.28;5452094;26;20014;-71
2024/04/15 02:16:18;;;;;;;16.05;2.50;;;;;;;-146.27;74.17;45154.38;5471905;26;19991;-69
2024/04/15 02:18:43;;;;;;;17.38;3.00;;;;;;;-146.27;73.94;45138.47;5466294;26;20012;-70
2024/04/15 02:21:09;;;;;;;13.32;2.55;;;;;;;-146.27;73.78;45168.31;5466648;26;20430;-70
2024/04/15 02:23:34;;;;;;;11.50;2.35;;;;;;;-146.27;73.70;45146.44;5451273;26;20075;-70
2024/04/15 02:25:59;;;;;;;12.13;2.17;;;;;;;-146.27;73.64;45146.44;5453843;26;20063;-69
2024/04/15 02:28:25;;;;;;;10.07;2.13;;;;;;;-146.27;73.68;45154.38;5448793;26;20006;-69
2024/04/15 02:30:50;;;;;;;13.55;1.88;;;;;;;-146.27;73.38;45154.38;5456261;26;20348;-69
2024/04/15 02:33:16;;;;;;;11.70;2.28;;;;;;;-146.27;73.24;45162.34;5450841;26;20010;-70
2024/04/15 02:35:41;;;;;;;5.55;1.70;;;;;;;-146.27;73.02;45176.28;5475349;26;19997;-69
2024/04/15 02:38:06;;;;;;;10.07;1.80;;;;;;;-146.27;72.74;45166.31;5485396;26;20294;-71
2024/04/15 02:40:32;;;;;;;15.07;1.85;;;;;;;-146.27;72.18;45190.22;5465383;26;20339;-70
2024/04/15 02:42:58;;;;;;;7.68;1.83;;;;;;;-146.27;71.57;45202.16;5477090;26;20017;-71
2024/04/15 02:45:23;;;;;;;14.45;1.83;;;;;;;-146.27;70.15;45289.72;5452914;26;20007;-72
2024/04/15 02:47:49;;;;;;;11.75;1.90;;;;;;;-146.27;70.18;45313.59;5448761;26;20371;-69
2024/04/15 02:50:14;;;;;;;14.50;1.92;;;;;;;-146.27;69.51;45337.47;5449015;26;20013;-70
2024/04/15 02:52:41;;;;;;;6.70;1.50;;;;;;;-146.27;69.74;45321.56;5448375;26;20030;-70
2024/04/15 02:55:07;;;;;;;17.23;2.10;;;;;;;-146.27;68.65;45423.06;5469940;26;20043;-69
2024/04/15 02:57:32;;;;;;;11.48;2.47;;;;;;;-146.27;68.03;45472.81;5456912;26;19994;-69
2024/04/15 02:59:57;;;;;;;3.88;1.40;;;;;;;-146.27;68.70;45417.09;5461296;26;20454;-70
2024/04/15 03:02:23;;;;;;;10.88;1.70;;;;;;;-146.27;69.38;45429.03;5449205;26;20322;-70
2024/04/15 03:04:48;;;;;;;16.25;2.72;;;;;;;-146.27;68.89;45444.94;5460747;26;19998;-70
2024/04/15 03:07:13;;;;;;;9.98;2.45;;;;;;;-146.27;68.20;45490.72;5475708;26;20390;-69
2024/04/15 03:09:39;;;;;;;7.70;1.80;;;;;;;-146.27;64.50;45638.00;5450518;26;20463;-69
2024/04/15 03:12:04;;;;;;;6.10;1.23;;;;;;;-146.27;60.56;45787.28;5451115;26;20446;-70
2024/04/15 03:14:31;;;;;;;6.50;1.42;;;;;;;-146.27;59.27;45849.00;5464828;26;19998;-70
2024/04/15 03:16:56;;;;;;;9.63;1.73;;;;;;;-146.27;58.64;45864.91;5456585;26;20458;-69
2024/04/15 03:19:22;;;;;;;8.40;1.23;;;;;;;-146.27;57.21;45992.31;5458548;26;20010;-70
2024/04/15 03:21:48;;;;;;;3.33;1.20;;;;;;;-146.27;57.43;45962.44;5450612;26;20034;-69
2024/04/15 03:24:14;;;;;;;4.65;0.98;;;;;;;-146.27;57.00;46018.19;5463091;26;20009;-70
2024/04/15 03:26:40;;;;;;;8.85;1.73;;;;;;;-146.27;55.90;46054.00;5466158;26;19994;-69
2024/04/15 03:29:05;;;;;;;13.38;1.65;;;;;;;-146.27;56.33;46103.78;5459979;26;19995;-71
2024/04/15 03:31:31;;;;;;;6.22;1.17;;;;;;;-146.27;56.02;46077.91;5473288;26;20027;-69
2024/04/15 03:33:56;;;;;;;7.47;1.30;;;;;;;-146.27;55.51;46123.69;5456140;26;20002;-70
2024/04/15 03:36:21;;;;;;;6.35;1.00;;;;;;;-146.27;55.73;46113.72;5473957;26;20058;-70
2024/04/15 03:38:47;;;;;;;7.32;1.20;;;;;;;-146.27;55.81;46133.63;5468186;26;20022;-70
2024/04/15 03:41:12;;;;;;;7.78;1.55;;;;;;;-146.27;56.80;46123.69;5448178;26;20339;-70
2024/04/15 03:43:38;;;;;;;4.65;1.35;;;;;;;-146.27;56.67;46105.78;5473172;26;19998;-70
2024/04/15 03:46:04;;;;;;;4.93;1.38;;;;;;;-146.27;56.26;46137.63;5479954;26;20005;-70
2024/04/15 03:48:31;;;;;;;10.00;1.70;;;;;;;-146.27;56.29;46169.47;5469109;26;20003;-69
2024/04/15 03:50:56;;;;;;;7.28;1.33;;;;;;;-146.27;56.49;46179.41;5454730;26;20103;-69
2024/04/15 03:53:22;;;;;;;8.13;1.40;;;;;;;-146.27;55.94;46177.44;5483908;26;20006;-69
2024/04/15 03:55:55;;;;;;;6.60;1.48;;;;;;;-146.27;55.45;46189.38;5471214;26;20451;-69
2024/04/15 03:58:21;;;;;;;8.65;1.45;;;;;;;-146.27;55.84;46173.44;5460982;26;19990;-69
2024/04/15 04:00:49;;;;;;;4.20;0.98;;;;;;;-146.27;55.98;46163.50;5470370;25;20331;-69
2024/04/15 04:03:17;;;;;;;1.75;1.10;;;;;;;-146.27;55.96;46165.50;5464181;26;19991;-69
2024/04/15 04:05:43;;;;;;;10.45;1.80;;;;;;;-146.27;56.52;46189.38;5450046;26;20094;-69
2024/04/15 04:08:08;;;;;;;8.95;1.45;;;;;;;-146.27;57.20;46157.53;5457899;26;20010;-68
2024/04/15 04:10:34;;;;;;;11.65;1.55;;;;;;;-146.27;57.47;46183.41;5448852;26;20039;-70
2024/04/15 04:12:59;;;;;;;8.57;1.40;;;;;;;-146.27;57.60;46133.63;5448353;26;20077;-70
2024/04/15 04:15:25;;;;;;;9.05;1.65;;;;;;;-146.27;58.54;46179.41;5449764;26;20014;-70
2024/04/15 04:17:50;;;;;;;8.98;1.65;;;;;;;-146.27;59.45;46151.56;5486648;25;21089;-70
2024/04/15 04:20:16;;;;;;;14.45;1.85;;;;;;;-146.27;60.00;46139.63;5453190;26;20319;-69
2024/04/15 04:22:41;;;;;;;8.32;1.33;;;;;;;-146.27;60.47;46127.66;5448119;26;20483;-72
2024/04/15 04:25:07;;;;;;;5.07;1.38;;;;;;;-146.27;61.04;46113.72;5447568;26;19999;-69
2024/04/15 04:27:32;;;;;;;6.50;1.40;;;;;;;-146.27;62.57;46129.66;5450732;26;19999;-71
2024/04/15 04:29:57;;;;;;;10.52;1.70;;;;;;;-146.27;61.84;46133.63;5458519;26;20010;-69
2024/04/15 04:32:23;;;;;;;8.30;1.30;;;;;;;-146.27;62.23;46137.63;5452007;26;20669;-68
2024/04/15 04:34:48;;;;;;;7.72;1.23;;;;;;;-146.27;61.43;46125.69;5474254;25;20010;-69
2024/04/15 04:37:14;;;;;;;7.53;1.67;;;;;;;-146.27;62.23;46129.66;5454693;26;21817;-70
2024/04/15 04:39:40;;;;;;;6.88;1.10;;;;;;;-146.27;63.14;46127.66;5463040;26;20547;-69
2024/04/15 04:42:05;;;;;;;15.30;1.83;;;;;;;-146.27;64.06;46123.69;5465746;26;19990;-69
2024/04/15 04:44:31;;;;;;;9.00;1.75;;;;;;;-146.27;63.87;46113.72;5477705;26;20478;-69
2024/04/15 04:46:56;;;;;;;8.60;1.63;;;;;;;-146.27;64.25;46093.81;5478337;26;20071;-69
2024/04/15 04:49:21;;;;;;;9.93;1.60;;;;;;;-146.27;64.37;46121.69;5478438;26;20505;-68
2024/04/15 04:51:47;;;;;;;10.18;1.33;;;;;;;-146.27;64.74;46119.69;5460739;26;20490;-71
2024/04/15 04:54:14;;;;;;;9.32;1.60;;;;;;;-146.27;64.86;46125.69;5451060;26;19994;-69
2024/04/15 04:56:39;;;;;;;14.05;2.22;;;;;;;-146.27;65.50;46137.63;5458969;26;20070;-69
2024/04/15 04:59:05;;;;;;;3.72;0.90;;;;;;;-146.27;64.94;46153.53;5471660;26;20322;-68
2024/04/15 05:01:31;;;;;;;7.50;1.30;;;;;;;-146.27;64.71;46143.59;5458370;26;19995;-70
2024/04/15 05:03:57;;;;;;;3.65;1.20;;;;;;;-146.27;64.95;46157.53;5470952;26;20005;-69
2024/04/15 05:06:22;;;;;;;4.25;1.25;;;;;;;-146.27;65.22;46199.31;5456284;26;19994;-69
2024/04/15 05:08:48;;;;;;;4.60;1.60;;;;;;;-146.27;64.56;46181.41;5452176;26;20069;-69
2024/04/15 05:11:13;;;;;;;7.47;1.40;;;;;;;-146.27;64.74;46231.19;5450345;26;20039;-72
2024/04/15 05:13:39;;;;;;;6.25;1.80;;;;;;;-146.27;64.99;46253.06;5450903;26;19998;-70
2024/04/15 05:16:12;;;;;;;8.13;1.58;;;;;;;-146.27;65.06;46280.94;5462782;26;20003;-69
2024/04/15 05:18:39;;;;;;;7.05;1.48;;;;;;;-146.27;65.08;46298.88;5453598;26;20003;-70
2024/04/15 05:21:09;;;;;;;7.55;1.30;;;;;;;-146.27;65.34;46406.34;5448912;26;19995;-69
2024/04/15 05:23:35;;;;;;;10.02;2.47;;;;;;;-146.27;65.04;46458.13;5456143;26;20005;-70
2024/04/15 05:26:00;;;;;;;5.75;1.27;;;;;;;-146.27;65.97;46452.16;5453065;26;20031;-69
2024/04/15 05:28:26;;;;;;;6.25;1.10;;;;;;;-146.27;65.67;46472.06;5450395;26;19999;-69
2024/04/15 05:30:53;;;;;;;7.60;1.55;;;;;;;-146.27;65.63;46476.03;5461030;26;20010;-70
2024/04/15 05:33:18;;;;;;;10.48;1.40;;;;;;;-146.27;65.03;46491.97;5476304;26;19998;-71
2024/04/15 05:35:43;;;;;;;12.05;1.45;;;;;;;-146.27;65.37;46523.81;5481818;26;20347;-70
2024/04/15 05:38:10;;;;;;;12.13;2.15;;;;;;;-146.27;64.73;46523.81;5454728;26;20453;-70
2024/04/15 05:40:36;;;;;;;3.90;1.30;;;;;;;-146.27;64.20;46541.72;5465509;26;20062;-70
2024/04/15 05:43:01;;;;;;;6.97;1.48;;;;;;;-146.27;64.63;46557.66;5471823;26;20402;-73
2024/04/15 05:45:26;;;;;;;3.97;1.30;;;;;;;-146.27;64.16;46527.78;5470099;26;20002;-69
2024/04/15 05:47:51;;;;;;;4.47;1.27;;;;;;;-146.27;64.09;46515.84;5471522;26;20071;-70
2024/04/15 05:50:17;;;;;;;7.72;1.20;;;;;;;-146.27;63.43;46515.84;5460922;26;20001;-70
2024/04/15 05:52:42;;;;;;;7.65;1.30;;;;;;;-146.27;63.41;46511.88;5471089;26;20006;-70
2024/04/15 05:55:08;;;;;;;8.35;2.30;;;;;;;-146.27;63.48;46501.91;5484201;26;20002;-67
2024/04/15 05:57:33;;;;;;;6.13;1.48;;;;;;;-146.27;64.11;46515.84;5482792;26;20738;-70
2024/04/15 05:59:58;;;;;;;7.72;1.00;;;;;;;-146.27;63.80;46497.94;5472655;26;20420;-69
2024/04/15 06:02:24;;;;;;;3.90;0.95;;;;;;;-146.27;63.94;46480.03;5465498;26;19991;-69
2024/04/15 06:04:50;;;;;;;6.97;1.20;;;;;;;-146.27;64.24;46533.78;5459608;26;20458;-69
2024/04/15 06:07:16;;;;;;;7.63;1.10;;;;;;;-146.27;64.46;46555.66;5486244;26;20006;-70
2024/04/15 06:09:41;;;;;;;14.70;1.23;;;;;;;-146.27;63.34;46525.81;5478840;26;20040;-72
2024/04/15 06:12:08;;;;;;;3.63;0.95;;;;;;;-146.27;64.09;46539.75;5462487;26;20288;-69
2024/04/15 06:14:34;;;;;;;4.28;1.60;;;;;;;-146.27;64.32;46543.72;5463446;26;20002;-69
2024/04/15 06:17:00;;;;;;;11.07;1.65;;;;;;;-146.27;64.11;46543.72;5465476;26;20078;-69
2024/04/15 06:19:26;;;;;;;8.82;1.50;;;;;;;-146.27;63.32;46525.81;5470158;26;19990;-69
2024/04/15 06:21:51;;;;;;;7.47;1.38;;;;;;;-146.27;63.00;46509.88;5456880;26;19998;-76
2024/04/15 06:24:18;;;;;;;6.57;1.17;;;;;;;-146.27;62.57;46511.88;5458500;26;20003;-68
2024/04/15 06:26:43;;;;;;;5.90;1.25;;;;;;;-146.27;62.44;46543.72;5448469;26;19991;-69
2024/04/15 06:29:08;;;;;;;5.75;1.95;;;;;;;-146.27;63.04;46535.75;5448065;26;20031;-70
2024/04/15 06:31:34;;;;;;;5.30;1.25;;;;;;;-146.27;62.32;46531.78;5451409;26;20332;-71
2024/04/15 06:34:00;;;;;;;2.47;0.75;;;;;;;-146.27;62.11;46537.75;5465375;26;19994;-68
2024/04/15 06:36:27;;;;;;;7.20;1.67;;;;;;;-146.27;62.18;46563.63;5467565;26;20002;-73
2024/04/15 06:38:52;;;;;;;5.32;1.10;;;;;;;-146.27;61.01;46551.69;5463421;26;20003;-69
2024/04/15 06:41:17;;;;;;;8.50;1.30;;;;;;;-146.27;61.21;46567.63;5466039;26;20017;-69
2024/04/15 06:43:43;;;;;;;10.38;1.65;;;;;;;-146.27;61.30;46539.75;5457366;26;19999;-69
2024/04/15 06:46:08;;;;;;;7.10;1.10;;;;;;;-146.27;62.14;46539.75;5448466;26;20068;-69
2024/04/15 06:48:34;;;;;;;9.00;1.52;;;;;;;-146.27;62.31;46543.72;5447544;26;20035;-69
2024/04/15 06:50:59;;;;;;;5.45;1.35;;;;;;;-146.27;63.90;46535.75;5473933;26;20022;-70
2024/04/15 06:53:24;;;;;;;13.88;1.42;;;;;;;-146.27;64.28;46521.81;5484588;26;19990;-70
2024/04/15 06:55:50;;;;;;;6.93;1.30;;;;;;;-146.27;64.87;46535.75;5480795;26;20005;-70
2024/04/15 06:58:15;;;;;;;9.52;1.40;;;;;;;-146.27;65.11;46537.75;5474716;26;20064;-69
2024/04/15 07:00:41;;;;;;;8.48;1.73;;;;;;;-146.27;65.22;46535.75;5449178;26;19991;-69
2024/04/15 07:03:06;;;;;;;5.75;1.70;;;;;;;-146.27;65.31;46529.78;5449230;26;20002;-70
2024/04/15 07:05:32;;;;;;;13.10;2.20;;;;;;;-146.27;65.81;46509.88;5470083;26;20009;-70
2024/04/15 07:07:58;;;;;;;8.38;1.60;;;;;;;-146.27;65.72;46541.72;5465028;26;20010;-70
2024/04/15 07:10:23;;;;;;;7.75;1.95;;;;;;;-146.27;65.19;46509.88;5467935;26;20030;-69
2024/04/15 07:12:49;;;;;;;6.65;1.50;;;;;;;-146.27;65.58;46511.88;5457404;26;19995;-70
2024/04/15 07:15:14;;;;;;;5.15;1.15;;;;;;;-146.27;65.14;46456.13;5476999;26;19990;-70
2024/04/15 07:17:40;;;;;;;9.23;2.17;;;;;;;-146.27;65.44;46468.06;5467710;26;20628;-70
2024/04/15 07:20:07;;;;;;;8.45;1.95;;;;;;;-146.27;67.08;46474.03;5468415;26;20010;-71
2024/04/15 07:22:32;;;;;;;11.00;3.10;;;;;;;-146.27;66.78;46476.03;5466583;26;20322;-69
2024/04/15 07:25:02;;;;;;;11.10;2.60;;;;;;;-146.27;67.27;46495.94;5484633;26;19990;-68
2024/04/15 07:27:30;;;;;;;14.57;2.15;;;;;;;-146.27;68.14;46448.16;5482433;26;20066;-70
2024/04/15 07:29:56;;;;;;;7.88;2.20;;;;;;;-146.27;68.30;46438.22;5482105;26;20147;-69
2024/04/15 07:32:21;;;;;;;8.23;2.28;;;;;;;-146.27;67.57;46430.25;5473459;26;20006;-70
2024/04/15 07:34:48;;;;;;;9.82;1.95;;;;;;;-146.27;68.38;46456.13;5453257;26;19991;-69
2024/04/15 07:37:14;;;;;;;8.23;1.85;;;;;;;-146.27;67.70;46438.22;5447314;26;20055;-69
2024/04/15 07:39:40;;;;;;;10.55;2.00;;;;;;;-146.27;67.15;46428.25;5448856;26;19991;-70
2024/04/15 07:42:06;;;;;;;10.70;2.35;;;;;;;-146.27;67.18;46456.13;5450302;26;20067;-69
2024/04/15 07:44:31;;;;;;;7.88;1.77;;;;;;;-146.27;66.06;46416.31;5473011;26;19994;-69
2024/04/15 07:46:57;;;;;;;9.13;2.90;;;;;;;-146.27;65.81;46440.19;5472513;26;20005;-70
2024/04/15 07:49:22;;;;;;;11.85;2.40;;;;;;;-146.27;65.49;46440.19;5451407;26;19999;-70
2024/04/15 07:51:47;;;;;;;4.90;1.88;;;;;;;-146.27;65.48;46470.06;5469759;26;20434;-70
2024/04/15 07:54:13;;;;;;;6.07;1.60;;;;;;;-146.27;65.56;46452.16;5478101;26;19990;-70
2024/04/15 07:56:38;;;;;;;7.68;2.05;;;;;;;-146.27;64.85;46414.31;5465826;26;20014;-70
2024/04/15 07:59:04;;;;;;;12.50;1.88;;;;;;;-146.27;66.17;46466.09;5448230;26;20005;-71
2024/04/15 08:01:29;;;;;;;10.40;1.90;;;;;;;-146.27;66.16;46444.19;5448160;26;19999;-70
2024/04/15 08:03:54;;;;;;;10.88;2.10;;;;;;;-146.27;66.67;46454.13;5449755;26;19999;-73
2024/04/15 08:06:19;;;;;;;11.35;2.33;;;;;;;-146.27;67.41;46484.00;5480183;26;20005;-70
2024/04/15 08:08:45;;;;;;;9.27;2.10;;;;;;;-146.27;66.70;46452.16;5486402;26;19998;-70
2024/04/15 08:11:10;;;;;;;9.48;2.38;;;;;;;-146.27;66.70;46478.03;5488190;26;20013;-69
2024/04/15 08:13:35;;;;;;;13.60;3.05;;;;;;;-146.27;66.06;46505.91;5488075;26;20454;-70
2024/04/15 08:16:01;;;;;;;9.35;2.60;;;;;;;-146.27;66.51;46521.81;5487585;26;20444;-69
2024/04/15 08:18:26;;;;;;;10.18;3.28;;;;;;;-146.27;66.56;46511.88;5465641;26;20023;-70
2024/04/15 08:20:57;;;;;;;11.02;2.72;;;;;;;-146.27;65.39;46482.00;5461172;26;20529;-70
2024/04/15 08:23:23;;;;;;;11.57;2.25;;;;;;;-146.27;64.75;46476.03;5451405;26;19991;-71
2024/04/15 08:25:53;;;;;;;11.95;2.53;;;;;;;-146.27;65.57;46476.03;5453903;26;20005;-70
2024/04/15 08:28:18;;;;;;;11.57;2.80;;;;;;;-146.27;65.41;46464.09;5462836;26;19995;-70
2024/04/15 08:30:43;;;;;;;10.13;2.63;;;;;;;-146.27;66.07;46478.03;5455476;26;20020;-69
2024/04/15 08:33:09;;;;;;;9.88;2.40;;;;;;;-146.27;67.20;46428.25;5472197;26;19995;-70
2024/04/15 08:35:34;;;;;;;11.70;2.38;;;;;;;-146.27;66.68;46416.31;5451357;26;19995;-72
2024/04/15 08:38:00;;;;;;;9.73;2.47;;;;;;;-146.27;67.80;46446.19;5469521;26;20047;-70
2024/04/15 08:40:25;;;;;;;14.95;2.58;;;;;;;-146.27;67.62;46464.09;5471642;26;20022;-70
2024/04/15 08:42:53;;;;;;;11.48;2.10;;;;;;;-146.27;66.88;46436.22;5455013;26;20007;-70
2024/04/15 08:45:20;;;;;;;10.30;1.85;;;;;;;-146.27;66.94;46452.16;5469574;26;20447;-70
2024/04/15 08:47:50;;;;;;;8.10;2.55;;;;;;;-146.27;67.06;46452.16;5483723;26;20020;-69
2024/04/15 08:50:15;;;;;;;6.80;1.75;;;;;;;-146.27;67.64;46476.03;5455894;26;20424;-70
2024/04/15 08:52:44;;;;;;;9.15;1.70;;;;;;;-146.27;67.18;46499.94;5460911;26;20006;-71
2024/04/15 08:55:10;;;;;;;14.77;2.05;;;;;;;-146.27;66.40;46452.16;5467738;26;20002;-70
2024/04/15 08:57:37;;;;;;;7.18;2.35;;;;;;;-146.27;65.64;46468.06;5480760;26;20002;-71
2024/04/15 09:00:05;;;;;;;6.93;1.67;;;;;;;-146.27;64.76;46454.13;5470415;26;20023;-69
2024/04/15 09:02:31;;;;;;;9.20;1.67;;;;;;;-146.27;64.40;46456.13;5467877;26;20002;-70
2024/04/15 09:04:57;;;;;;;13.52;1.77;;;;;;;-146.27;63.75;46424.28;5455816;26;20006;-72
2024/04/15 09:07:23;;;;;;;6.53;1.42;;;;;;;-146.27;63.80;46442.19;5456770;26;20003;-69
2024/04/15 09:09:48;;;;;;;7.55;1.98;;;;;;;-146.27;63.48;46482.00;5463279;26;19999;-70
2024/04/15 09:12:14;;;;;;;8.45;1.77;;;;;;;-146.27;63.42;46468.06;5454437;26;19999;-71
2024/04/15 09:14:41;;;;;;;14.88;2.13;;;;;;;-146.27;63.26;46472.06;5481768;26;20002;-69
2024/04/15 09:17:08;;;;;;;11.18;1.63;;;;;;;-146.27;62.93;46497.94;5487248;26;20002;-71
2024/04/15 09:19:34;;;;;;;9.60;1.90;;;;;;;-146.27;63.57;46497.94;5487854;26;19998;-69
2024/04/15 09:22:02;;;;;;;11.38;2.17;;;;;;;-146.27;63.48;46468.06;5484610;26;20469;-69
2024/04/15 09:24:28;;;;;;;12.80;2.47;;;;;;;-146.27;67.42;46428.25;5474248;26;20002;-69
2024/04/15 09:26:53;;;;;;;17.67;1.95;;;;;;;-146.27;69.67;46396.41;5483095;26;20005;-70
2024/04/15 09:29:19;;;;;;;12.25;1.85;;;;;;;-146.27;73.40;46368.53;5484024;26;20010;-70
2024/04/15 09:31:44;;;;;;;13.07;1.75;;;;;;;-146.27;76.20;46272.97;5471785;26;20081;-70
2024/04/15 09:34:10;;;;;;;5.57;1.60;;;;;;;-146.27;77.67;46075.91;5486763;26;20442;-71
2024/04/15 09:36:42;;;;;;;6.97;1.95;;;;;;;-146.27;78.13;45914.69;5478438;26;19994;-70
2024/04/15 09:39:08;;;;;;;10.82;2.10;;;;;;;-146.27;78.68;45918.66;5487221;26;20078;-68
2024/04/15 09:41:34;;;;;;;8.40;1.95;;;;;;;-146.27;78.79;45870.88;5479674;26;20051;-70
2024/04/15 09:44:00;;;;;;;8.65;1.85;;;;;;;-146.27;79.27;45767.38;5454249;26;20075;-71
2024/04/15 09:46:31;;;;;;;11.60;2.40;;;;;;;-146.27;79.20;45763.41;5477268;26;20006;-71
2024/04/15 09:48:57;;;;;;;15.70;2.05;;;;;;;-146.27;80.08;45643.97;5480748;26;20432;-69
2024/04/15 09:51:23;;;;;;;10.60;2.20;;;;;;;-146.27;79.80;45604.19;5450472;26;20045;-69
2024/04/15 09:53:52;;;;;;;6.47;2.35;;;;;;;-146.27;80.45;45600.19;5468025;26;20426;-70
2024/04/15 09:56:25;;;;;;;13.57;2.42;;;;;;;-146.27;81.81;45602.19;5486681;26;20024;-70
2024/04/15 09:58:55;;;;;;;10.38;2.05;;;;;;;-146.27;80.34;45616.13;5454382;26;19995;-70
2024/04/15 10:01:22;;;;;;;6.47;2.45;;;;;;;-146.27;79.08;45580.28;5464112;26;20075;-70
2024/04/15 10:03:52;;;;;;;5.25;2.05;;;;;;;-146.27;79.03;45602.19;5470926;26;20410;-70
2024/04/15 10:06:26;;;;;;;11.10;2.85;;;;;;;-146.27;78.63;45552.44;5476189;26;20087;-70
2024/04/15 10:08:53;;;;;;;17.25;2.75;;;;;;;-146.27;80.43;45632.03;5450587;26;20423;-71
2024/04/15 10:11:19;;;;;;;8.07;2.25;;;;;;;-146.27;79.51;45634.03;5452349;26;20003;-70
2024/04/15 10:13:45;;;;;;;12.95;2.50;;;;;;;-146.27;79.01;45564.38;5455678;26;19998;-68
2024/04/15 10:16:19;;;;;;;15.13;2.45;;;;;;;-146.27;77.44;45570.34;5460736;26;19994;-70
2024/04/15 10:18:54;;;;;;;9.40;1.63;;;;;;;-146.27;77.28;45600.19;5477687;26;20475;-70
2024/04/15 10:21:19;;;;;;;6.22;1.77;;;;;;;-146.27;77.25;45640.00;5478321;26;20005;-68
2024/04/15 10:23:45;;;;;;;11.27;1.50;;;;;;;-146.27;76.17;45691.75;5449347;26;19995;-68
2024/04/15 10:26:10;;;;;;;9.95;2.22;;;;;;;-146.27;75.43;45683.78;5449273;26;19991;-68
2024/04/15 10:28:36;;;;;;;10.40;1.33;;;;;;;-146.27;74.80;45787.28;5470061;26;20005;-72
2024/04/15 10:31:02;;;;;;;5.15;1.42;;;;;;;-146.27;74.13;45757.44;5476092;26;19998;-70
2024/04/15 10:33:27;;;;;;;3.50;1.27;;;;;;;-146.27;73.42;45785.31;5460992;26;19994;-71
2024/04/15 10:35:53;;;;;;;5.28;1.17;;;;;;;-146.27;73.15;45835.06;5457327;26;20018;-70
2024/04/15 10:38:19;;;;;;;4.30;1.35;;;;;;;-146.27;72.38;45845.00;5449956;26;20006;-69
2024/04/15 10:40:47;;;;;;;9.88;1.40;;;;;;;-146.27;71.44;45882.84;5457954;26;19994;-69
2024/04/15 10:43:14;;;;;;;7.40;1.08;;;;;;;-146.27;70.33;45890.78;5451919;26;20091;-69
2024/04/15 10:45:40;;;;;;;5.25;1.20;;;;;;;-146.27;69.21;45902.75;5448880;26;20326;-69
2024/04/15 10:48:05;;;;;;;4.03;1.02;;;;;;;-146.27;69.61;45886.81;5454394;26;20005;-70
2024/04/15 10:50:32;;;;;;;5.10;1.23;;;;;;;-146.27;69.21;45845.00;5449468;26;20009;-70
2024/04/15 10:52:57;;;;;;;3.47;1.00;;;;;;;-146.27;69.63;45825.09;5472664;26;20662;-70
2024/04/15 10:55:22;;;;;;;10.38;1.27;;;;;;;-146.27;70.24;45890.78;5455010;26;20027;-70
2024/04/15 10:57:49;;;;;;;7.93;1.52;;;;;;;-146.27;70.24;45904.72;5451742;26;19998;-69
2024/04/15 11:00:17;;;;;;;3.15;1.05;;;;;;;-146.27;68.94;45922.63;5449257;26;20010;-70
2024/04/15 11:02:44;;;;;;;6.55;1.70;;;;;;;-146.27;69.49;45898.75;5458063;26;20008;-70
2024/04/15 11:05:14;;;;;;;6.60;2.55;;;;;;;-146.27;68.54;45922.63;5465078;26;20026;-69
2024/04/15 11:07:40;;;;;;;6.50;1.60;;;;;;;-146.27;69.43;45946.53;5476037;26;20076;-70